createdAt,value
2023-01-11T00:00:56.938Z,11.17
2023-01-11T00:03:23.874Z,11.15
2023-01-11T00:05:50.782Z,11.12
2023-01-11T00:08:19.334Z,11.12
2023-01-11T00:10:46.204Z,11.08
2023-01-11T00:13:14.228Z,11.06
2023-01-11T00:15:41.099Z,11.06
2023-01-11T00:18:07.996Z,11.04
2023-01-11T00:20:35.017Z,11.06
2023-01-11T00:23:01.863Z,11.05
2023-01-11T00:25:28.654Z,11.05
2023-01-11T00:27:55.761Z,11.01
2023-01-11T00:30:23.100Z,10.97
2023-01-11T00:32:50.073Z,10.98
2023-01-11T00:35:16.991Z,10.97
2023-01-11T00:37:43.852Z,10.97
2023-01-11T00:40:11.113Z,10.93
2023-01-11T00:42:56.834Z,10.91
2023-01-11T00:45:42.166Z,10.88
2023-01-11T00:48:10.800Z,10.85
2023-01-11T00:50:39.700Z,10.85
2023-01-11T00:53:08.899Z,10.83
2023-01-11T00:55:36.681Z,10.78
2023-01-11T00:58:03.798Z,10.82
2023-01-11T01:00:30.823Z,10.79
2023-01-11T01:02:58.179Z,10.78
2023-01-11T01:05:25.070Z,10.79
2023-01-11T01:07:52.061Z,10.76
2023-01-11T01:10:20.671Z,10.75
2023-01-11T01:13:06.250Z,10.73
2023-01-11T01:15:34.069Z,10.68
2023-01-11T01:18:01.167Z,10.64
2023-01-11T01:20:29.053Z,10.61
2023-01-11T01:22:55.899Z,10.59
2023-01-11T01:25:22.746Z,10.62
2023-01-11T01:27:49.580Z,10.60
2023-01-11T01:30:16.697Z,10.58
2023-01-11T01:32:43.654Z,10.60
2023-01-11T01:35:10.574Z,10.59
2023-01-11T01:37:37.700Z,10.58
2023-01-11T01:40:05.801Z,10.56
2023-01-11T01:42:32.666Z,10.53
2023-01-11T01:45:24.455Z,10.54
2023-01-11T01:48:16.658Z,10.47
2023-01-11T01:51:06.210Z,10.45
2023-01-11T01:53:38.310Z,10.40
2023-01-11T01:56:28.797Z,10.35
2023-01-11T01:59:01.157Z,10.33
2023-01-11T02:01:46.503Z,10.27
2023-01-11T02:04:32.836Z,10.25
2023-01-11T02:07:04.521Z,10.15
2023-01-11T02:09:57.116Z,10.13
2023-01-11T02:12:28.217Z,10.14
2023-01-11T02:14:56.399Z,10.10
2023-01-11T02:17:24.818Z,10.08
2023-01-11T02:20:45.336Z,10.03
2023-01-11T02:23:51.617Z,9.91
2023-01-11T02:26:30.489Z,9.86
2023-01-11T02:29:24.276Z,9.83
2023-01-11T02:32:10.115Z,9.78
2023-01-11T02:34:55.931Z,9.70
2023-01-11T02:37:25.812Z,9.64
2023-01-11T02:40:11.737Z,9.59
2023-01-11T02:43:02.867Z,9.54
2023-01-11T02:45:56.646Z,9.53
2023-01-11T02:49:00.292Z,9.51
2023-01-11T02:51:47.333Z,9.49
2023-01-11T02:54:18.734Z,9.48
2023-01-11T02:56:56.103Z,9.52
2023-01-11T02:59:34.890Z,9.52
2023-01-11T03:02:05.105Z,9.54
2023-01-11T03:04:35.714Z,9.57
2023-01-11T03:07:32.408Z,9.59
2023-01-11T03:10:30.486Z,9.61
2023-01-11T03:13:19.952Z,9.59
2023-01-11T03:16:20.473Z,9.64
2023-01-11T03:18:59.210Z,9.65
2023-01-11T03:21:49.099Z,9.69
2023-01-11T03:24:29.001Z,9.68
2023-01-11T03:27:06.023Z,9.70
2023-01-11T03:29:47.955Z,9.69
2023-01-11T03:32:22.326Z,9.64
2023-01-11T03:35:01.346Z,9.66
2023-01-11T03:38:03.665Z,9.70
2023-01-11T03:40:37.439Z,9.70
2023-01-11T03:43:13.427Z,9.73
2023-01-11T03:45:47.279Z,9.74
2023-01-11T03:48:23.783Z,9.74
2023-01-11T03:50:54.320Z,9.77
2023-01-11T03:53:24.185Z,9.79
2023-01-11T03:55:56.799Z,9.80
2023-01-11T03:58:26.873Z,9.81
2023-01-11T04:00:56.349Z,9.85
2023-01-11T04:03:25.516Z,9.86
2023-01-11T04:05:58.111Z,9.91
2023-01-11T04:08:28.937Z,9.92
2023-01-11T04:10:55.852Z,9.93
2023-01-11T04:13:23.025Z,9.92
2023-01-11T04:15:54.830Z,9.95
2023-01-11T04:18:22.215Z,9.98
2023-01-11T04:20:49.089Z,10.01
2023-01-11T04:23:16.018Z,10.06
2023-01-11T04:25:48.298Z,10.10
2023-01-11T04:28:19.613Z,10.15
2023-01-11T04:30:46.577Z,10.21
2023-01-11T04:33:14.603Z,10.31
2023-01-11T04:35:42.362Z,10.42
2023-01-11T04:38:09.262Z,10.55
2023-01-11T04:40:38.708Z,10.67
2023-01-11T04:43:05.669Z,10.75
2023-01-11T04:45:33.122Z,10.82
2023-01-11T04:48:00.139Z,10.87
2023-01-11T04:50:27.774Z,10.92
2023-01-11T04:52:54.777Z,10.97
2023-01-11T04:55:21.678Z,11.03
2023-01-11T04:57:48.938Z,11.06
2023-01-11T05:00:16.296Z,11.13
2023-01-11T05:02:43.471Z,11.16
2023-01-11T05:05:10.915Z,11.21
2023-01-11T05:07:38.987Z,11.22
2023-01-11T05:10:06.481Z,11.21
2023-01-11T05:12:33.524Z,11.19
2023-01-11T05:15:11.945Z,11.18
2023-01-11T05:17:39.311Z,11.16
2023-01-11T05:20:06.539Z,11.17
2023-01-11T05:22:33.520Z,11.11
2023-01-11T05:25:00.590Z,11.11
2023-01-11T05:27:27.638Z,11.08
2023-01-11T05:29:54.537Z,11.05
2023-01-11T05:32:21.409Z,11.02
2023-01-11T05:34:48.291Z,11.02
2023-01-11T05:37:15.937Z,11.00
2023-01-11T05:39:46.002Z,10.99
2023-01-11T05:42:17.721Z,11.00
2023-01-11T05:45:03.166Z,10.98
2023-01-11T05:47:30.298Z,10.97
2023-01-11T05:49:57.219Z,10.90
2023-01-11T05:52:24.184Z,10.87
2023-01-11T05:54:51.780Z,10.85
2023-01-11T05:57:19.162Z,10.79
2023-01-11T05:59:49.576Z,10.76
2023-01-11T06:02:24.471Z,10.71
2023-01-11T06:04:51.528Z,10.63
2023-01-11T06:07:18.392Z,10.55
2023-01-11T06:10:01.865Z,10.49
2023-01-11T06:12:28.893Z,10.44
2023-01-11T06:14:55.755Z,10.38
2023-01-11T06:17:22.783Z,10.35
2023-01-11T06:19:49.654Z,10.28
2023-01-11T06:22:16.530Z,10.20
2023-01-11T06:24:43.553Z,10.14
2023-01-11T06:27:10.544Z,10.07
2023-01-11T06:29:37.659Z,10.02
2023-01-11T06:32:05.046Z,9.95
2023-01-11T06:34:31.981Z,9.91
2023-01-11T06:36:59.025Z,9.85
2023-01-11T06:39:25.970Z,9.79
2023-01-11T06:41:53.088Z,9.76
2023-01-11T06:44:20.065Z,9.75
2023-01-11T06:46:46.944Z,9.72
2023-01-11T06:49:13.974Z,9.69
2023-01-11T06:51:40.924Z,9.63
2023-01-11T06:54:07.888Z,9.60
2023-01-11T06:56:34.862Z,9.58
2023-01-11T06:59:01.856Z,9.53
2023-01-11T07:01:30.557Z,9.51
2023-01-11T07:03:57.980Z,9.49
2023-01-11T07:06:25.603Z,9.45
2023-01-11T07:08:52.519Z,9.42
2023-01-11T07:11:19.934Z,9.40
2023-01-11T07:13:46.858Z,9.38
2023-01-11T07:16:13.909Z,9.39
2023-01-11T07:18:40.882Z,9.41
2023-01-11T07:21:07.966Z,9.48
2023-01-11T07:23:35.015Z,9.49
2023-01-11T07:26:01.921Z,9.57
2023-01-11T07:28:30.654Z,9.69
2023-01-11T07:30:59.868Z,9.84
2023-01-11T07:33:28.281Z,10.16
2023-01-11T07:35:55.514Z,10.72
2023-01-11T07:38:23.278Z,10.99
2023-01-11T07:40:50.391Z,11.45
2023-01-11T07:43:23.383Z,12.25
2023-01-11T07:45:52.574Z,12.85
2023-01-11T07:48:25.296Z,14.18
2023-01-11T07:50:53.319Z,15.98
2023-01-11T07:53:20.447Z,16.80
2023-01-11T07:55:47.537Z,15.82
2023-01-11T07:58:15.344Z,15.23
2023-01-11T08:00:42.378Z,14.73
2023-01-11T08:03:09.881Z,14.47
2023-01-11T08:05:37.036Z,14.32
2023-01-11T08:08:05.027Z,15.08
2023-01-11T08:10:32.604Z,14.87
2023-01-11T08:13:18.100Z,14.67
2023-01-11T08:15:45.348Z,14.60
2023-01-11T08:18:12.977Z,14.63
2023-01-11T08:20:40.847Z,14.66
2023-01-11T08:23:09.858Z,14.54
2023-01-11T08:25:37.631Z,14.50
2023-01-11T08:28:06.746Z,14.47
2023-01-11T08:30:33.887Z,14.54
2023-01-11T08:33:01.802Z,14.59
2023-01-11T08:35:29.472Z,14.70
2023-01-11T08:37:56.443Z,14.96
2023-01-11T08:40:25.640Z,15.16
2023-01-11T08:42:57.153Z,15.32
2023-01-11T08:45:24.752Z,15.30
2023-01-11T08:47:52.357Z,15.41
2023-01-11T08:50:20.450Z,15.66
2023-01-11T08:52:51.134Z,15.86
2023-01-11T08:55:19.759Z,16.20
2023-01-11T08:57:47.205Z,16.58
2023-01-11T09:00:14.677Z,17.27
2023-01-11T09:02:41.665Z,17.85
2023-01-11T09:05:09.122Z,18.73
2023-01-11T09:07:36.241Z,19.42
2023-01-11T09:10:03.391Z,20.54
2023-01-11T09:12:32.978Z,21.19
2023-01-11T09:15:00.274Z,20.81
2023-01-11T09:17:28.146Z,20.09
2023-01-11T09:19:55.196Z,19.86
2023-01-11T09:22:22.069Z,19.62
2023-01-11T09:24:49.106Z,19.39
2023-01-11T09:27:16.655Z,19.23
2023-01-11T09:29:43.637Z,19.20
2023-01-11T09:32:10.538Z,18.83
2023-01-11T09:34:37.566Z,19.12
2023-01-11T09:37:06.941Z,19.61
2023-01-11T09:39:35.223Z,19.67
2023-01-11T09:42:39.573Z,19.31
2023-01-11T09:45:15.612Z,19.08
2023-01-11T09:48:00.981Z,19.02
2023-01-11T09:50:32.107Z,19.31
2023-01-11T09:53:04.853Z,19.52
2023-01-11T09:55:36.689Z,20.06
2023-01-11T09:58:09.784Z,19.97
2023-01-11T10:00:45.744Z,20.12
2023-01-11T10:03:39.715Z,20.51
2023-01-11T10:06:29.053Z,21.40
2023-01-11T10:18:30.103Z,24.80
2023-01-11T10:18:44.460Z,25.96
2023-01-11T10:20:50.658Z,26.58
2023-01-11T10:23:49.733Z,26.26
2023-01-11T10:26:31.371Z,26.07
2023-01-11T10:29:29.805Z,25.33
2023-01-11T10:32:46.026Z,25.09
2023-01-11T10:36:13.785Z,24.58
2023-01-11T10:38:57.694Z,24.91
2023-01-11T10:41:36.089Z,25.03
2023-01-11T10:44:19.454Z,25.10
2023-01-11T10:46:51.499Z,24.77
2023-01-11T10:49:44.179Z,24.82
2023-01-11T10:52:30.214Z,25.19
2023-01-11T10:54:58.976Z,25.23
2023-01-11T10:57:59.848Z,24.67
2023-01-11T11:01:13.352Z,24.87
2023-01-11T11:03:58.511Z,25.74
2023-01-11T11:06:28.715Z,25.08
2023-01-11T11:09:10.773Z,24.86
2023-01-11T11:12:19.108Z,24.15
2023-01-11T11:14:45.939Z,23.16
2023-01-11T11:17:31.198Z,22.93
2023-01-11T11:19:58.525Z,23.15
2023-01-11T11:22:25.678Z,23.49
2023-01-11T11:24:59.018Z,23.13
2023-01-11T11:27:32.510Z,23.16
2023-01-11T11:29:59.585Z,23.30
2023-01-11T11:32:36.529Z,22.79
2023-01-11T11:35:04.973Z,22.41
2023-01-11T11:37:34.870Z,22.13
2023-01-11T11:40:02.525Z,21.84
2023-01-11T11:42:29.531Z,21.84
2023-01-11T11:45:15.680Z,21.69
2023-01-11T11:47:44.317Z,21.53
2023-01-11T11:50:37.103Z,21.44
2023-01-11T11:53:07.582Z,21.35
2023-01-11T11:55:35.694Z,21.30
2023-01-11T11:58:13.278Z,21.27
2023-01-11T12:00:47.909Z,21.28
2023-01-11T12:03:22.949Z,21.30
2023-01-11T12:05:56.272Z,21.29
2023-01-11T12:08:27.121Z,21.27
2023-01-11T12:11:00.083Z,21.21
2023-01-11T12:13:37.436Z,21.20
2023-01-11T12:16:07.488Z,21.09
2023-01-11T12:18:37.407Z,21.08
2023-01-11T12:21:20.844Z,20.99
2023-01-11T12:24:08.590Z,20.99
2023-01-11T12:26:53.075Z,20.85
2023-01-11T12:30:05.513Z,20.79
2023-01-11T12:32:59.603Z,20.57
2023-01-11T12:35:39.147Z,20.59
2023-01-11T12:38:30.377Z,20.50
2023-01-11T12:41:00.138Z,20.38
2023-01-11T12:44:04.632Z,20.32
2023-01-11T12:46:52.789Z,20.34
2023-01-11T12:49:41.419Z,20.31
2023-01-11T12:52:30.960Z,20.21
2023-01-11T12:55:24.026Z,20.14
2023-01-11T12:58:15.775Z,19.98
2023-01-11T13:00:57.895Z,19.89
2023-01-11T13:04:06.248Z,19.77
2023-01-11T13:06:53.854Z,19.79
2023-01-11T13:09:23.759Z,19.73
2023-01-11T13:12:13.442Z,19.67
2023-01-11T13:15:15.637Z,19.54
2023-01-11T13:17:56.037Z,19.44
2023-01-11T13:20:26.395Z,19.34
2023-01-11T13:23:16.862Z,19.35
2023-01-11T13:25:46.530Z,19.32
2023-01-11T13:28:24.450Z,19.27
2023-01-11T13:30:52.378Z,19.20
2023-01-11T13:33:23.426Z,19.08
2023-01-11T13:36:07.561Z,18.97
2023-01-11T13:38:45.583Z,18.96
2023-01-11T13:41:18.030Z,18.89
2023-01-11T13:44:16.204Z,18.83
2023-01-11T13:46:55.504Z,18.79
2023-01-11T13:49:51.868Z,18.70
2023-01-11T13:52:53.095Z,18.64
2023-01-11T13:55:38.578Z,18.53
2023-01-11T13:58:18.138Z,18.48
2023-01-11T14:00:54.390Z,18.43
2023-01-11T14:03:49.382Z,18.45
2023-01-11T14:06:28.471Z,18.42
2023-01-11T14:09:17.555Z,18.49
2023-01-11T14:12:19.568Z,18.51
2023-01-11T14:15:08.558Z,18.55
2023-01-11T14:17:53.167Z,18.53
2023-01-11T14:20:56.903Z,18.55
2023-01-11T14:23:41.395Z,18.54
2023-01-11T14:26:27.182Z,18.48
2023-01-11T14:29:06.803Z,18.44
2023-01-11T14:31:42.737Z,18.39
2023-01-11T14:34:18.367Z,18.35
2023-01-11T14:37:09.953Z,18.30
2023-01-11T14:39:43.058Z,18.26
2023-01-11T14:42:41.125Z,18.26
2023-01-11T14:45:41.575Z,18.17
2023-01-11T14:48:18.823Z,18.12
2023-01-11T14:51:30.675Z,18.11
2023-01-11T14:54:21.502Z,18.08
2023-01-11T14:56:52.501Z,18.06
2023-01-11T14:59:34.328Z,18.03
2023-01-11T15:02:04.304Z,18.01
2023-01-11T15:04:58.300Z,18.01
2023-01-11T15:07:36.596Z,17.99
2023-01-11T15:10:28.414Z,17.96
2023-01-11T15:12:57.500Z,17.94
2023-01-11T15:15:48.632Z,17.90
2023-01-11T15:18:23.393Z,17.80
2023-01-11T15:21:15.776Z,17.75
2023-01-11T15:23:54.489Z,17.69
2023-01-11T15:26:23.650Z,17.64
2023-01-11T15:28:53.381Z,17.61
2023-01-11T15:31:34.375Z,17.54
2023-01-11T15:34:03.390Z,17.50
2023-01-11T15:36:56.222Z,17.46
2023-01-11T15:39:51.692Z,17.40
2023-01-11T15:42:37.112Z,17.30
2023-01-11T15:45:35.156Z,17.26
2023-01-11T15:48:27.965Z,17.20
2023-01-11T15:51:25.355Z,17.13
2023-01-11T15:54:01.311Z,17.06
2023-01-11T15:56:53.271Z,16.96
2023-01-11T15:59:51.013Z,16.93
2023-01-11T16:02:37.861Z,16.86
2023-01-11T16:05:20.939Z,16.81
2023-01-11T16:08:21.779Z,16.76
2023-01-11T16:11:17.007Z,16.67
2023-01-11T16:13:56.060Z,16.58
2023-01-11T16:16:29.233Z,16.51
2023-01-11T16:19:08.155Z,16.48
2023-01-11T16:21:38.556Z,16.40
2023-01-11T16:24:15.603Z,16.36
2023-01-11T16:26:42.699Z,16.29
2023-01-11T16:29:37.334Z,16.26
2023-01-11T16:32:22.559Z,16.16
2023-01-11T16:34:52.234Z,16.08
2023-01-11T16:37:42.747Z,16.03
2023-01-11T16:40:21.330Z,15.98
2023-01-11T16:42:57.552Z,15.95
2023-01-11T16:45:39.029Z,15.91
2023-01-11T16:48:13.846Z,15.87
2023-01-11T16:50:48.750Z,15.86
2023-01-11T16:53:16.636Z,15.83
2023-01-11T16:56:16.026Z,15.76
2023-01-11T16:58:43.610Z,15.70
2023-01-11T17:01:14.094Z,15.67
2023-01-11T17:03:47.324Z,15.66
2023-01-11T17:06:20.686Z,15.65
2023-01-11T17:08:53.385Z,15.60
2023-01-11T17:11:41.789Z,15.60
2023-01-11T17:14:20.603Z,15.56
2023-01-11T17:17:02.853Z,15.53
2023-01-11T17:19:32.768Z,15.49
2023-01-11T17:22:07.527Z,15.47
2023-01-11T17:24:42.257Z,15.48
2023-01-11T17:27:16.035Z,15.43
2023-01-11T17:29:45.029Z,15.39
2023-01-11T17:32:20.285Z,15.39
2023-01-11T17:34:50.415Z,15.36
2023-01-11T17:37:19.004Z,15.33
2023-01-11T17:39:50.162Z,15.32
2023-01-11T17:42:44.103Z,15.25
2023-01-11T17:45:31.382Z,15.19
2023-01-11T17:48:12.052Z,15.14
2023-01-11T17:50:54.889Z,15.10
2023-01-11T17:53:26.961Z,15.06
2023-01-11T17:55:56.797Z,15.04
2023-01-11T17:58:27.760Z,14.99
2023-01-11T18:01:17.741Z,15.00
2023-01-11T18:03:58.489Z,14.94
2023-01-11T18:06:45.293Z,14.93
2023-01-11T18:09:18.650Z,14.91
2023-01-11T18:11:47.260Z,14.87
2023-01-11T18:14:23.528Z,14.85
2023-01-11T18:17:31.971Z,14.81
2023-01-11T18:20:23.178Z,14.73
2023-01-11T18:22:58.868Z,14.69
2023-01-11T18:25:36.150Z,14.63
2023-01-11T18:28:12.411Z,14.60
2023-01-11T18:30:41.747Z,14.56
2023-01-11T18:33:19.921Z,14.53
2023-01-11T18:35:49.471Z,14.51
2023-01-11T18:38:22.370Z,14.48
2023-01-11T18:40:51.738Z,14.45
2023-01-11T18:43:25.498Z,14.43
2023-01-11T18:45:53.075Z,14.39
2023-01-11T18:48:20.797Z,14.37
2023-01-11T18:50:49.334Z,14.39
2023-01-11T18:53:16.922Z,14.37
2023-01-11T18:55:45.818Z,14.33
2023-01-11T18:58:13.049Z,14.29
2023-01-11T19:00:41.516Z,14.25
2023-01-11T19:03:10.493Z,14.20
2023-01-11T19:05:37.490Z,14.15
2023-01-11T19:08:04.836Z,14.08
2023-01-11T19:10:32.028Z,14.07
2023-01-11T19:12:59.075Z,14.01
2023-01-11T19:15:26.891Z,14.01
2023-01-11T19:17:53.916Z,14.00
2023-01-11T19:20:20.915Z,14.00
2023-01-11T19:22:47.875Z,14.00
2023-01-11T19:25:14.907Z,14.00
2023-01-11T19:27:41.957Z,13.94
2023-01-11T19:30:09.549Z,13.95
2023-01-11T19:32:36.568Z,13.89
2023-01-11T19:35:04.127Z,13.88
2023-01-11T19:37:32.528Z,13.84
2023-01-11T19:39:59.617Z,13.81
2023-01-11T19:42:26.792Z,13.79
2023-01-11T19:44:53.739Z,13.76
2023-01-11T19:47:20.983Z,13.73
2023-01-11T19:49:48.024Z,13.68
2023-01-11T19:52:21.803Z,13.65
2023-01-11T19:54:48.988Z,13.58
2023-01-11T19:57:20.685Z,13.55
2023-01-11T19:59:48.987Z,13.50
2023-01-11T20:02:18.954Z,13.50
2023-01-11T20:04:46.046Z,13.47
2023-01-11T20:07:14.131Z,13.46
2023-01-11T20:09:41.296Z,13.43
2023-01-11T20:12:10.638Z,13.42
2023-01-11T20:14:39.061Z,13.39
2023-01-11T20:17:06.644Z,13.37
2023-01-11T20:19:35.910Z,13.37
2023-01-11T20:22:03.317Z,13.34
2023-01-11T20:24:30.443Z,13.30
2023-01-11T20:27:01.019Z,13.30
2023-01-11T20:29:28.318Z,13.27
2023-01-11T20:31:55.785Z,13.26
2023-01-11T20:34:24.014Z,13.22
2023-01-11T20:36:51.638Z,13.20
2023-01-11T20:39:18.775Z,13.18
2023-01-11T20:41:51.263Z,13.16
2023-01-11T20:44:28.338Z,13.13
2023-01-11T20:46:57.105Z,13.07
2023-01-11T20:49:31.977Z,13.04
2023-01-11T20:51:59.609Z,12.95
2023-01-11T20:54:26.709Z,12.91
2023-01-11T20:56:54.067Z,12.89
2023-01-11T20:59:20.952Z,12.82
2023-01-11T21:01:49.516Z,12.75
2023-01-11T21:04:18.392Z,12.71
2023-01-11T21:06:48.068Z,12.68
2023-01-11T21:09:17.275Z,12.67
2023-01-11T21:11:44.661Z,12.64
2023-01-11T21:14:14.408Z,12.63
2023-01-11T21:16:42.867Z,12.58
2023-01-11T21:19:14.246Z,12.63
2023-01-11T21:21:42.597Z,12.59
2023-01-11T21:24:12.977Z,12.52
2023-01-11T21:26:42.630Z,12.51
2023-01-11T21:29:11.702Z,12.50
2023-01-11T21:31:40.320Z,12.41
2023-01-11T21:34:08.532Z,12.40
2023-01-11T21:36:35.530Z,12.37
2023-01-11T21:39:03.418Z,12.33
2023-01-11T21:41:50.873Z,12.31
2023-01-11T21:44:19.520Z,12.28
2023-01-11T21:46:46.796Z,12.25
2023-01-11T21:49:18.204Z,12.25
2023-01-11T21:51:45.092Z,12.21
2023-01-11T21:54:14.928Z,12.21
2023-01-11T21:56:45.639Z,12.20
2023-01-11T21:59:13.758Z,12.18
2023-01-11T22:01:42.624Z,12.16
2023-01-11T22:04:12.018Z,12.17
2023-01-11T22:06:43.905Z,12.19
2023-01-11T22:09:12.186Z,12.15
2023-01-11T22:11:39.898Z,12.14
2023-01-11T22:14:08.802Z,12.14
2023-01-11T22:16:36.699Z,12.12
2023-01-11T22:19:06.813Z,12.09
2023-01-11T22:21:33.936Z,12.07
2023-01-11T22:24:00.893Z,12.02
2023-01-11T22:26:33.481Z,11.99
2023-01-11T22:29:12.795Z,11.94
2023-01-11T22:31:51.665Z,11.92
2023-01-11T22:34:19.029Z,11.85
2023-01-11T22:36:46.480Z,11.80
2023-01-11T22:39:14.825Z,11.79
2023-01-11T22:41:42.101Z,11.76
2023-01-11T22:44:09.994Z,11.73
2023-01-11T22:46:37.598Z,11.69
2023-01-11T22:49:06.276Z,11.70
2023-01-11T22:51:34.290Z,11.67
2023-01-11T22:54:01.536Z,11.64
2023-01-11T22:56:29.550Z,11.62
2023-01-11T22:58:57.652Z,11.58
2023-01-11T23:01:26.082Z,11.61
2023-01-11T23:03:54.174Z,11.58
2023-01-11T23:06:26.291Z,11.59
2023-01-11T23:08:54.137Z,11.56
2023-01-11T23:11:42.375Z,11.57
2023-01-11T23:14:12.496Z,11.52
2023-01-11T23:16:39.956Z,11.51
2023-01-11T23:19:08.428Z,11.53
2023-01-11T23:21:36.208Z,11.49
2023-01-11T23:24:03.754Z,11.46
2023-01-11T23:26:30.754Z,11.47
2023-01-11T23:28:57.745Z,11.43
2023-01-11T23:31:26.500Z,11.45
2023-01-11T23:33:59.417Z,11.42
2023-01-11T23:36:32.074Z,11.43
2023-01-11T23:38:59.078Z,11.40
2023-01-11T23:41:45.344Z,11.40
2023-01-11T23:44:14.240Z,11.32
2023-01-11T23:47:00.735Z,11.30
2023-01-11T23:49:29.127Z,11.25
2023-01-11T23:51:56.382Z,11.24
2023-01-11T23:54:29.285Z,11.21
2023-01-11T23:56:57.200Z,11.18
2023-01-11T23:59:24.187Z,11.15
